Time;durP1;ratioP1;P1;durP2;ratioP2;P2;SDS_P1;SDS_P2;PMS_P1;PMS_P2;Temp;Humidity;BMP_temperature;BMP_pressure;BME280_temperature;BME280_humidity;BME280_pressure;Samples;Min_cycle;Max_cycle;Signal;HPM_P1;HPM_P2
2022/06/15 00:00:57;;;;;;;3.97;1.30;;;;;;;12.52;93.99;101145.22;5241992;28;20282;-72
2022/06/15 00:03:31;;;;;;;5.00;1.52;;;;;;;12.32;95.92;101148.53;5252047;28;20028;-72
2022/06/15 00:06:07;;;;;;;5.28;1.50;;;;;;;12.66;92.74;101149.09;5250199;28;20024;-71
2022/06/15 00:08:39;;;;;;;3.72;1.60;;;;;;;12.68;92.34;101155.16;5244923;28;20446;-72
2022/06/15 00:11:17;;;;;;;5.78;1.50;;;;;;;12.53;94.26;101152.19;5235375;28;20070;-72
2022/06/15 00:13:48;;;;;;;3.58;1.23;;;;;;;12.54;94.07;101148.66;5250649;28;20051;-71
2022/06/15 00:16:20;;;;;;;5.80;1.60;;;;;;;12.62;91.84;101151.88;5255121;28;20064;-71
2022/06/15 00:18:52;;;;;;;5.55;1.65;;;;;;;12.53;93.17;101150.44;5236422;28;20286;-72
2022/06/15 00:21:22;;;;;;;5.40;1.52;;;;;;;12.51;93.13;101149.63;5254640;28;20043;-72
2022/06/15 00:23:52;;;;;;;6.55;1.67;;;;;;;12.27;95.20;101149.59;5255323;28;20490;-72
2022/06/15 00:26:24;;;;;;;5.28;1.75;;;;;;;12.37;92.32;101144.00;5254151;28;20034;-71
2022/06/15 00:28:54;;;;;;;3.20;1.30;;;;;;;12.28;91.40;101146.06;5249281;28;20104;-71
2022/06/15 00:31:25;;;;;;;3.83;1.50;;;;;;;12.17;93.14;101143.81;5247126;28;20103;-72
2022/06/15 00:33:55;;;;;;;3.05;1.50;;;;;;;12.20;91.75;101146.31;5254830;28;20430;-71
2022/06/15 00:36:26;;;;;;;3.83;1.30;;;;;;;11.80;95.95;101155.50;5255179;28;20024;-71
2022/06/15 00:38:58;;;;;;;3.80;1.52;;;;;;;11.77;96.38;101163.47;5219423;28;20028;-71
2022/06/15 00:41:32;;;;;;;3.67;1.50;;;;;;;11.87;93.81;101160.50;5244001;28;20028;-72
2022/06/15 00:44:21;;;;;;;3.13;1.30;;;;;;;12.16;93.00;101155.16;5252423;28;20035;-72
2022/06/15 00:46:54;;;;;;;3.30;1.42;;;;;;;12.14;91.43;101153.53;5252167;28;20470;-72
2022/06/15 00:49:36;;;;;;;3.42;1.17;;;;;;;11.62;94.90;101149.06;5253143;28;20477;-71
2022/06/15 00:52:14;;;;;;;4.15;1.58;;;;;;;11.65;95.07;101146.34;5249106;28;20033;-72
2022/06/15 00:54:49;;;;;;;3.70;1.33;;;;;;;11.60;95.16;101144.81;5255212;28;20019;-71
2022/06/15 00:57:20;;;;;;;4.07;1.35;;;;;;;11.68;96.56;101138.44;5253613;28;20119;-72
2022/06/15 00:59:57;;;;;;;3.15;1.20;;;;;;;11.76;92.73;101131.16;5245760;28;20085;-71
2022/06/15 01:02:27;;;;;;;4.60;1.30;;;;;;;11.71;93.03;101132.22;5247601;28;20105;-71
2022/06/15 01:05:03;;;;;;;4.45;1.60;;;;;;;11.41;94.37;101136.59;5253379;28;20032;-72
2022/06/15 01:07:56;;;;;;;4.43;1.48;;;;;;;11.48;94.02;101132.03;5237192;28;20107;-72
2022/06/15 01:10:41;;;;;;;2.47;1.40;;;;;;;11.60;94.06;101129.94;5253119;28;20051;-72
2022/06/15 01:13:49;;;;;;;4.30;1.67;;;;;;;11.55;94.57;101126.56;5249251;28;20029;-72
2022/06/15 01:16:32;;;;;;;5.72;1.60;;;;;;;11.23;95.60;101124.06;5229571;28;20039;-71
2022/06/15 01:19:33;;;;;;;7.47;1.50;;;;;;;11.17;95.75;101119.03;5252071;28;20035;-71
2022/06/15 01:22:26;;;;;;;4.32;1.42;;;;;;;11.18;97.01;101114.63;5255669;28;20027;-71
2022/06/15 01:25:05;;;;;;;3.55;1.50;;;;;;;11.16;98.05;101122.53;5243126;28;20037;-71
2022/06/15 01:27:51;;;;;;;3.65;1.45;;;;;;;11.30;97.71;101125.59;5255090;28;20097;-71
2022/06/15 01:31:07;;;;;;;4.40;1.48;;;;;;;11.49;96.04;101121.53;5241378;28;20085;-72
2022/06/15 01:33:56;;;;;;;3.00;1.30;;;;;;;11.35;94.61;101113.25;5220592;28;20041;-72
2022/06/15 01:36:32;;;;;;;3.20;1.40;;;;;;;11.40;95.68;101116.56;5252752;28;20520;-72
2022/06/15 01:39:05;;;;;;;4.78;1.60;;;;;;;11.15;96.42;101115.59;5255177;28;20137;-71
2022/06/15 01:41:55;;;;;;;3.45;1.25;;;;;;;11.23;95.62;101117.97;5251208;28;20035;-71
2022/06/15 01:44:31;;;;;;;4.90;1.60;;;;;;;11.29;96.75;101118.63;5252462;28;20082;-72
2022/06/15 01:47:06;;;;;;;4.70;1.50;;;;;;;11.47;94.66;101112.84;5251956;28;20079;-72
2022/06/15 01:49:43;;;;;;;6.90;1.50;;;;;;;11.02;98.37;101114.22;5254476;28;20394;-71
2022/06/15 01:52:18;;;;;;;5.65;1.70;;;;;;;10.98;97.36;101116.97;5248963;28;20089;-72
2022/06/15 01:54:57;;;;;;;3.87;1.60;;;;;;;10.75;100.00;101128.97;5253828;28;20515;-72
2022/06/15 01:57:29;;;;;;;4.38;1.45;;;;;;;10.79;99.39;101123.63;5253557;28;20032;-72
2022/06/15 02:00:10;;;;;;;3.20;1.65;;;;;;;10.61;100.00;101126.75;5243939;28;20020;-72
2022/06/15 02:03:10;;;;;;;3.65;1.58;;;;;;;10.76;100.00;101128.06;5251421;28;20020;-72
2022/06/15 02:05:54;;;;;;;3.85;1.60;;;;;;;10.89;98.99;101130.28;5240353;28;20036;-72
2022/06/15 02:08:37;;;;;;;2.95;1.58;;;;;;;10.94;96.31;101124.94;5252063;28;20397;-72
2022/06/15 02:11:15;;;;;;;7.40;1.70;;;;;;;11.08;97.69;101114.03;5254718;28;20032;-72
2022/06/15 02:13:50;;;;;;;4.40;1.70;;;;;;;10.88;99.03;101117.28;5249082;28;20207;-72
2022/06/15 02:16:30;;;;;;;4.37;1.80;;;;;;;10.94;97.07;101111.88;5252557;28;20497;-72
2022/06/15 02:19:04;;;;;;;5.53;1.50;;;;;;;10.86;97.83;101113.84;5253905;28;20781;-71
2022/06/15 02:21:39;;;;;;;7.10;1.70;;;;;;;10.88;96.93;101114.66;5251065;28;20470;-72
2022/06/15 02:24:14;;;;;;;6.10;1.48;;;;;;;11.04;95.20;101109.81;5247199;28;20535;-71
2022/06/15 02:26:45;;;;;;;4.47;1.40;;;;;;;10.75;96.65;101108.94;5253803;28;20377;-71
2022/06/15 02:29:21;;;;;;;2.05;1.52;;;;;;;10.51;96.22;101100.91;5247323;28;20020;-71
2022/06/15 02:31:55;;;;;;;3.28;1.60;;;;;;;10.28;98.35;101101.50;5242492;28;20098;-72
2022/06/15 02:34:26;;;;;;;4.38;1.60;;;;;;;10.49;96.32;101095.69;5252672;28;20043;-72
2022/06/15 02:36:56;;;;;;;3.80;1.75;;;;;;;10.35;100.00;101099.59;5251146;28;20536;-71
2022/06/15 02:39:27;;;;;;;4.47;1.80;;;;;;;9.99;100.00;101109.16;5252720;28;20046;-71
2022/06/15 02:41:59;;;;;;;4.35;1.85;;;;;;;10.22;100.00;101100.78;5251111;28;20040;-71
2022/06/15 02:44:35;;;;;;;4.65;1.85;;;;;;;10.28;98.05;101104.09;5252518;28;20035;-70
2022/06/15 02:47:05;;;;;;;5.20;1.42;;;;;;;10.11;100.00;101095.84;5247600;28;20024;-72
2022/06/15 02:49:35;;;;;;;3.08;1.60;;;;;;;10.13;100.00;101095.81;5253986;28;20028;-71
2022/06/15 02:52:08;;;;;;;2.80;1.67;;;;;;;10.12;100.00;101104.53;5250774;28;20200;-72
2022/06/15 02:54:43;;;;;;;4.93;1.63;;;;;;;10.43;100.00;101089.78;5250273;28;20020;-72
2022/06/15 02:57:14;;;;;;;6.73;1.60;;;;;;;10.20;99.57;101097.38;5253060;28;20504;-72
2022/06/15 02:59:45;;;;;;;3.40;1.60;;;;;;;10.39;95.69;101093.38;5242023;28;20025;-72
2022/06/15 03:02:16;;;;;;;5.00;1.63;;;;;;;10.38;97.18;101087.28;5244017;28;20040;-71
2022/06/15 03:04:48;;;;;;;2.17;1.40;;;;;;;10.13;97.74;101080.16;5253032;28;20326;-72
2022/06/15 03:07:22;;;;;;;4.13;1.38;;;;;;;10.09;96.39;101083.72;5250863;28;20021;-71
2022/06/15 03:09:52;;;;;;;2.65;1.35;;;;;;;9.97;95.30;101077.03;5251330;28;20024;-72
2022/06/15 03:12:23;;;;;;;9.90;1.50;;;;;;;9.80;99.03;101087.03;5252321;28;20032;-72
2022/06/15 03:14:53;;;;;;;2.28;1.20;;;;;;;9.99;99.08;101083.06;5251961;28;20030;-72
2022/06/15 03:17:23;;;;;;;3.20;1.58;;;;;;;10.01;100.00;101080.41;5251547;28;20048;-72
2022/06/15 03:19:54;;;;;;;2.72;1.50;;;;;;;10.37;96.23;101071.66;5251800;28;20031;-72
2022/06/15 03:22:24;;;;;;;4.10;1.60;;;;;;;10.12;98.63;101074.06;5233773;28;20044;-72
2022/06/15 03:24:55;;;;;;;5.28;1.90;;;;;;;9.98;100.00;101070.06;5251748;28;20107;-72
2022/06/15 03:27:25;;;;;;;3.33;1.70;;;;;;;10.33;100.00;101070.88;5251714;28;20028;-72
2022/06/15 03:29:55;;;;;;;4.47;1.70;;;;;;;10.53;98.14;101070.34;5243660;28;20042;-72
2022/06/15 03:32:26;;;;;;;5.88;1.90;;;;;;;10.51;98.51;101073.00;5244740;28;20051;-72
2022/06/15 03:34:56;;;;;;;6.60;1.90;;;;;;;10.72;96.92;101071.53;5250929;28;20493;-72
2022/06/15 03:37:27;;;;;;;7.18;1.85;;;;;;;10.55;96.93;101074.63;5251706;28;20401;-72
2022/06/15 03:39:57;;;;;;;3.30;1.60;;;;;;;10.26;100.00;101061.50;5251163;28;20086;-71
2022/06/15 03:42:27;;;;;;;3.33;1.90;;;;;;;10.53;100.00;101075.56;5252793;28;20480;-72
2022/06/15 03:44:58;;;;;;;3.47;1.60;;;;;;;10.50;99.53;101073.06;5251197;28;20025;-71
2022/06/15 03:47:28;;;;;;;3.47;1.63;;;;;;;10.29;100.00;101071.88;5233687;28;20020;-72
2022/06/15 03:49:58;;;;;;;6.72;1.70;;;;;;;10.51;100.00;101077.38;5217646;28;20030;-72
2022/06/15 03:52:29;;;;;;;5.85;1.77;;;;;;;10.65;99.29;101070.84;5256417;28;20197;-72
2022/06/15 03:54:59;;;;;;;7.00;2.15;;;;;;;10.86;99.16;101074.63;5253382;28;20031;-72
2022/06/15 03:57:30;;;;;;;4.07;1.60;;;;;;;11.26;97.41;101070.78;5255885;28;20568;-71
2022/06/15 04:00:00;;;;;;;6.28;1.75;;;;;;;11.26;95.09;101069.03;5245575;28;20025;-72
2022/06/15 04:02:30;;;;;;;5.22;2.10;;;;;;;11.27;98.17;101070.72;5248222;28;20026;-72
2022/06/15 04:05:01;;;;;;;5.18;1.90;;;;;;;11.45;95.32;101072.78;5253855;28;20031;-72
2022/06/15 04:10:20;;;;;;;4.40;1.58;;;;;;;11.19;98.46;101057.03;5252924;28;20059;-72
2022/06/15 04:12:50;;;;;;;4.90;1.73;;;;;;;11.31;97.20;101055.81;5237098;28;20020;-72
2022/06/15 04:15:21;;;;;;;5.95;1.80;;;;;;;11.35;98.27;101058.28;5253234;28;20024;-72
2022/06/15 04:17:51;;;;;;;2.80;1.60;;;;;;;11.64;97.59;101066.09;5254470;28;20374;-72
2022/06/15 04:20:32;;;;;;;5.07;1.70;;;;;;;11.67;96.52;101054.69;5255407;28;20514;-72
2022/06/15 04:23:09;;;;;;;3.40;1.30;;;;;;;11.84;98.03;101065.47;5235824;28;20254;-73
2022/06/15 04:25:46;;;;;;;3.65;1.65;;;;;;;12.12;96.03;101061.03;5255862;28;20054;-72
2022/06/15 04:28:19;;;;;;;2.95;1.60;;;;;;;12.25;95.62;101063.16;5250940;28;20035;-71
2022/06/15 04:30:49;;;;;;;5.28;1.75;;;;;;;12.07;98.12;101057.69;5245253;28;20446;-72
2022/06/15 04:33:20;;;;;;;3.47;1.70;;;;;;;12.16;99.61;101054.75;5250695;28;20111;-72
2022/06/15 04:35:50;;;;;;;5.30;2.00;;;;;;;12.45;95.49;101054.59;5254709;28;20024;-71
2022/06/15 04:38:21;;;;;;;7.43;2.28;;;;;;;12.82;96.79;101049.75;5253701;28;20032;-72
2022/06/15 04:40:51;;;;;;;4.80;1.98;;;;;;;12.97;93.62;101047.41;5254856;28;20059;-73
2022/06/15 04:43:22;;;;;;;5.47;1.83;;;;;;;13.67;94.09;101043.75;5254542;28;20036;-72
2022/06/15 04:45:52;;;;;;;6.03;1.83;;;;;;;15.27;86.45;101036.56;5255025;28;20032;-73
2022/06/15 04:48:23;;;;;;;4.85;1.90;;;;;;;18.30;72.94;101028.88;5253780;28;20016;-73
2022/06/15 04:50:55;;;;;;;3.90;1.70;;;;;;;18.89;70.24;101029.59;5254214;28;20031;-73
2022/06/15 04:53:25;;;;;;;6.32;1.70;;;;;;;19.52;71.03;101031.69;5254894;28;20035;-73
2022/06/15 04:55:55;;;;;;;5.00;1.60;;;;;;;18.94;71.69;101030.19;5254047;28;20020;-73
2022/06/15 04:58:26;;;;;;;4.13;1.60;;;;;;;19.11;71.47;101030.81;5251613;28;20089;-73
2022/06/15 05:00:56;;;;;;;3.35;1.30;;;;;;;22.03;64.12;101018.16;5243147;28;20270;-73
2022/06/15 05:03:26;;;;;;;5.07;1.75;;;;;;;21.35;62.92;101027.72;5232626;28;20119;-73
2022/06/15 05:05:58;;;;;;;4.03;1.60;;;;;;;21.93;64.12;101032.28;5254980;28;20081;-73
2022/06/15 05:08:28;;;;;;;5.82;1.40;;;;;;;22.94;59.52;101018.94;5234817;28;20530;-72
2022/06/15 05:11:00;;;;;;;4.38;1.40;;;;;;;21.20;62.65;101033.31;5255623;28;20153;-73
2022/06/15 05:13:31;;;;;;;4.35;1.60;;;;;;;20.74;64.71;101037.47;5246541;28;20028;-73
2022/06/15 05:16:01;;;;;;;4.32;1.42;;;;;;;21.46;62.16;101030.47;5247955;28;20031;-73
2022/06/15 05:18:31;;;;;;;12.02;1.45;;;;;;;23.57;57.61;101029.78;5228532;28;20097;-72
2022/06/15 05:21:02;;;;;;;3.33;1.40;;;;;;;25.98;54.32;101016.44;5247537;28;20033;-71
2022/06/15 05:23:32;;;;;;;7.57;1.70;;;;;;;24.96;53.91;101031.13;5235042;28;20382;-74
2022/06/15 05:26:03;;;;;;;2.80;1.20;;;;;;;25.74;52.99;101029.41;5242715;28;20036;-73
2022/06/15 05:28:33;;;;;;;2.97;1.15;;;;;;;26.60;51.42;101032.06;5245668;28;20040;-74
2022/06/15 05:31:05;;;;;;;5.20;1.45;;;;;;;25.03;54.08;101026.94;5223254;28;20040;-74
2022/06/15 05:33:36;;;;;;;4.00;1.15;;;;;;;25.33;56.17;101034.09;5251853;28;20248;-73
2022/06/15 05:36:11;;;;;;;4.72;1.45;;;;;;;24.51;57.73;101038.72;5251690;28;20394;-72
2022/06/15 05:38:41;;;;;;;4.07;1.42;;;;;;;23.83;58.69;101030.34;5248282;28;20028;-73
2022/06/15 05:41:12;;;;;;;5.45;1.40;;;;;;;24.13;56.58;101028.63;5252497;28;20032;-73
2022/06/15 05:43:44;;;;;;;3.00;1.30;;;;;;;24.25;58.29;101032.91;5252802;28;20406;-73
2022/06/15 05:46:30;;;;;;;4.53;1.50;;;;;;;23.98;60.17;101027.25;5254155;28;20024;-73
2022/06/15 05:49:03;;;;;;;5.65;1.73;;;;;;;23.56;59.44;101021.91;5255514;28;20496;-73
2022/06/15 05:51:34;;;;;;;4.65;1.60;;;;;;;21.15;65.02;101030.09;5251447;28;20036;-73
2022/06/15 05:54:05;;;;;;;4.78;1.50;;;;;;;21.34;66.14;101031.34;5254991;28;20496;-73
2022/06/15 05:56:35;;;;;;;6.55;1.70;;;;;;;20.96;66.43;101027.06;5249536;28;20032;-71
2022/06/15 05:59:06;;;;;;;5.70;1.60;;;;;;;20.15;68.91;101034.56;5246536;28;20024;-73
2022/06/15 06:01:37;;;;;;;5.68;1.83;;;;;;;19.42;71.91;101035.06;5245181;28;20058;-72
2022/06/15 06:04:12;;;;;;;4.50;1.48;;;;;;;20.46;69.49;101029.72;5245525;28;20513;-72
2022/06/15 06:06:42;;;;;;;5.28;1.83;;;;;;;19.86;70.48;101035.63;5252470;28;20465;-72
2022/06/15 06:09:13;;;;;;;5.28;1.55;;;;;;;21.57;67.77;101032.34;5250213;28;20069;-72
2022/06/15 06:11:43;;;;;;;6.25;1.50;;;;;;;22.25;65.78;101025.38;5253309;28;20479;-72
2022/06/15 06:14:13;;;;;;;6.93;1.50;;;;;;;20.51;68.29;101030.25;5249773;28;20025;-71
2022/06/15 06:16:44;;;;;;;4.07;1.65;;;;;;;22.10;65.62;101019.38;5241978;28;20031;-72
2022/06/15 06:19:14;;;;;;;4.68;1.40;;;;;;;22.81;63.33;101028.88;5250932;28;20023;-73
2022/06/15 06:21:44;;;;;;;5.63;1.48;;;;;;;22.61;64.36;101027.91;5253907;28;20027;-73
2022/06/15 06:24:15;;;;;;;4.35;1.30;;;;;;;23.07;63.39;101024.16;5232909;28;20486;-73
2022/06/15 06:26:45;;;;;;;2.95;1.27;;;;;;;21.94;66.93;101021.50;5244155;28;20100;-73
2022/06/15 06:29:16;;;;;;;3.45;1.10;;;;;;;22.21;64.29;101031.88;5242296;28;20349;-72
2022/06/15 06:31:46;;;;;;;3.88;1.20;;;;;;;23.26;62.29;101025.25;5247051;28;20032;-72
2022/06/15 06:34:16;;;;;;;2.67;1.10;;;;;;;24.12;60.36;101024.28;5252140;28;20028;-72
2022/06/15 06:36:47;;;;;;;3.92;1.38;;;;;;;22.73;61.18;101034.94;5252790;28;20036;-73
2022/06/15 06:39:27;;;;;;;4.72;1.23;;;;;;;22.09;65.22;101032.84;5251592;28;20043;-72
2022/06/15 06:42:00;;;;;;;5.90;1.20;;;;;;;23.61;60.01;101035.72;5251722;28;20406;-73
2022/06/15 06:44:30;;;;;;;4.13;1.30;;;;;;;24.16;58.72;101033.72;5253462;28;20035;-72
2022/06/15 06:47:01;;;;;;;4.35;1.20;;;;;;;25.21;57.93;101025.34;5250850;28;20016;-73
2022/06/15 06:49:31;;;;;;;4.28;1.30;;;;;;;25.09;56.74;101022.84;5253651;28;20031;-73
2022/06/15 06:52:02;;;;;;;7.13;1.23;;;;;;;24.59;56.78;101021.06;5246034;28;20047;-72
2022/06/15 06:54:33;;;;;;;5.50;1.40;;;;;;;25.12;57.33;101022.59;5245898;28;20032;-73
2022/06/15 06:57:03;;;;;;;8.45;1.35;;;;;;;25.69;55.60;101020.91;5250434;28;20031;-72
2022/06/15 06:59:34;;;;;;;5.22;1.40;;;;;;;25.28;55.03;101029.16;5246026;28;20020;-73
2022/06/15 07:02:04;;;;;;;6.20;1.33;;;;;;;25.43;55.09;101029.59;5251770;28;20028;-73
2022/06/15 07:04:35;;;;;;;4.78;1.20;;;;;;;26.02;54.65;101022.38;5250172;28;20478;-73
2022/06/15 07:07:05;;;;;;;4.22;1.10;;;;;;;26.94;52.32;101018.78;5253785;28;20271;-73
2022/06/15 07:09:35;;;;;;;5.03;1.42;;;;;;;24.87;56.82;101034.63;5250157;28;20106;-73
2022/06/15 07:12:06;;;;;;;4.90;1.40;;;;;;;24.96;54.82;101030.28;5236286;28;20055;-73
2022/06/15 07:14:37;;;;;;;4.35;1.15;;;;;;;25.08;56.89;101024.69;5249742;28;20609;-73
2022/06/15 07:17:07;;;;;;;4.50;1.27;;;;;;;25.60;54.40;101027.13;5245773;28;20020;-73
2022/06/15 07:19:37;;;;;;;5.65;1.20;;;;;;;27.04;51.94;101008.00;5253852;28;20031;-73
2022/06/15 07:22:07;;;;;;;4.03;1.10;;;;;;;26.75;52.79;101018.88;5228094;28;20032;-73
2022/06/15 07:24:38;;;;;;;3.30;1.13;;;;;;;26.75;51.64;101018.88;5247208;28;20053;-73
2022/06/15 07:27:08;;;;;;;4.40;1.25;;;;;;;25.91;53.66;101014.47;5254070;28;20363;-73
2022/06/15 07:29:39;;;;;;;4.43;1.38;;;;;;;25.45;53.85;101022.31;5249066;28;20058;-74
2022/06/15 07:32:11;;;;;;;3.85;1.45;;;;;;;27.13;51.92;101013.38;5250365;28;20031;-73
2022/06/15 07:34:42;;;;;;;3.90;1.27;;;;;;;27.43;52.34;101013.06;5257757;28;20544;-73
2022/06/15 07:37:12;;;;;;;4.00;1.13;;;;;;;28.17;50.64;101009.09;5254596;28;20473;-73
2022/06/15 07:39:43;;;;;;;4.20;1.13;;;;;;;28.83;50.02;101004.88;5257003;28;20016;-73
2022/06/15 07:42:13;;;;;;;5.55;1.25;;;;;;;28.34;49.20;101008.25;5254463;28;20024;-73
2022/06/15 07:44:43;;;;;;;2.97;0.85;;;;;;;28.24;50.36;101012.00;5257295;28;20397;-73
2022/06/15 07:50:04;;;;;;;5.13;1.17;;;;;;;28.16;51.04;101004.72;5254073;28;20547;-73
2022/06/15 07:52:40;;;;;;;6.18;1.15;;;;;;;29.65;48.26;101003.19;5249407;28;20064;-74
2022/06/15 07:55:13;;;;;;;2.53;1.00;;;;;;;29.38;48.80;101001.59;5245928;28;20039;-74
2022/06/15 07:57:43;;;;;;;5.63;1.17;;;;;;;27.22;52.42;101007.13;5256049;28;20031;-73
2022/06/15 08:00:15;;;;;;;5.55;1.40;;;;;;;28.06;52.60;101003.13;5245774;28;20386;-73
2022/06/15 08:02:46;;;;;;;4.13;1.10;;;;;;;28.84;49.45;100998.47;5253060;28;20032;-73
2022/06/15 08:05:17;;;;;;;5.13;1.20;;;;;;;29.10;49.86;100999.31;5252956;28;20028;-73
2022/06/15 08:07:49;;;;;;;5.05;1.17;;;;;;;30.25;48.60;100999.25;5253064;28;20057;-72
2022/06/15 08:10:24;;;;;;;3.03;0.80;;;;;;;29.51;50.36;100995.75;5255033;28;20028;-72
2022/06/15 08:12:54;;;;;;;3.57;0.90;;;;;;;28.99;48.72;100995.06;5255060;28;20028;-74
2022/06/15 08:15:25;;;;;;;5.43;1.10;;;;;;;29.15;48.85;100988.88;5252992;28;20849;-73
2022/06/15 08:18:08;;;;;;;5.32;1.05;;;;;;;30.30;47.76;100984.22;5254987;28;20035;-73
2022/06/15 08:20:46;;;;;;;4.70;1.25;;;;;;;31.57;44.85;100976.69;5251421;28;20029;-73
2022/06/15 08:23:20;;;;;;;2.63;1.00;;;;;;;29.08;47.76;100983.31;5245974;28;20228;-73
2022/06/15 08:25:56;;;;;;;4.67;1.17;;;;;;;29.17;47.29;100986.88;5251025;28;20137;-71
2022/06/15 08:28:30;;;;;;;3.97;0.93;;;;;;;29.82;46.64;100983.34;5262150;22;20069;-74
2022/06/15 08:31:00;;;;;;;2.70;0.80;;;;;;;28.62;48.21;100988.28;5223039;28;20028;-73
2022/06/15 08:33:30;;;;;;;2.40;1.20;;;;;;;28.63;49.53;100976.50;5212949;28;20025;-74
2022/06/15 08:36:01;;;;;;;3.58;1.20;;;;;;;30.45;46.66;100962.78;5235145;28;20111;-74
2022/06/15 08:38:31;;;;;;;4.25;1.13;;;;;;;30.51;46.52;100964.78;5231291;28;20028;-74
2022/06/15 08:41:18;;;;;;;3.40;1.00;;;;;;;30.11;45.32;100968.38;5231610;28;20437;-74
2022/06/15 08:44:03;;;;;;;2.85;0.90;;;;;;;30.39;45.44;100956.19;5230895;28;20027;-74
2022/06/15 08:46:44;;;;;;;3.50;0.90;;;;;;;29.38;45.03;100969.25;5213499;28;20029;-74
2022/06/15 08:49:48;;;;;;;4.53;1.10;;;;;;;29.76;45.82;100968.69;5229060;28;20048;-74
2022/06/15 08:52:41;;;;;;;3.08;1.20;;;;;;;29.92;45.46;100965.16;5225372;28;20037;-74
2022/06/15 08:55:21;;;;;;;2.15;0.80;;;;;;;28.87;46.28;100964.00;5227460;28;20048;-74
2022/06/15 08:57:57;;;;;;;5.70;1.10;;;;;;;28.47;46.83;100971.03;5230299;28;20099;-74
2022/06/15 09:00:32;;;;;;;2.58;0.90;;;;;;;30.20;44.68;100961.13;5223812;28;20059;-74
2022/06/15 09:03:05;;;;;;;2.35;0.93;;;;;;;30.26;45.55;100955.88;5231690;28;20028;-74
2022/06/15 09:05:57;;;;;;;4.75;1.05;;;;;;;30.14;45.25;100951.00;5234935;28;20074;-74
2022/06/15 09:08:36;;;;;;;6.15;1.23;;;;;;;30.07;44.10;100952.72;5232699;28;20113;-74
2022/06/15 09:11:32;;;;;;;3.10;0.90;;;;;;;31.12;44.13;100954.97;5227581;28;20029;-74
2022/06/15 09:14:35;;;;;;;3.03;0.80;;;;;;;29.43;44.32;100956.13;5231698;28;20116;-74
2022/06/15 09:17:10;;;;;;;2.97;0.98;;;;;;;31.29;44.62;100960.13;5234595;28;20384;-74
2022/06/15 09:19:50;;;;;;;4.43;0.93;;;;;;;31.25;42.89;100958.81;5231829;28;20031;-75
2022/06/15 09:22:25;;;;;;;4.22;1.00;;;;;;;31.26;42.71;100963.19;5229163;28;20033;-74
2022/06/15 09:25:12;;;;;;;5.70;1.10;;;;;;;30.56;43.60;100957.84;5227295;28;20103;-75
2022/06/15 09:27:51;;;;;;;3.65;0.80;;;;;;;32.47;42.98;100955.84;5229095;28;20110;-74
2022/06/15 09:30:27;;;;;;;3.85;1.17;;;;;;;29.97;43.67;100960.09;5222643;28;20044;-74
2022/06/15 09:33:20;;;;;;;4.22;1.20;;;;;;;27.65;45.32;100960.75;5228245;28;20051;-74
2022/06/15 09:35:53;;;;;;;4.70;0.80;;;;;;;30.64;43.67;100943.53;5227709;28;20390;-73
2022/06/15 09:38:23;;;;;;;4.07;0.90;;;;;;;31.85;44.21;100954.34;5222079;28;20064;-74
2022/06/15 09:41:00;;;;;;;4.25;1.05;;;;;;;31.90;44.33;100930.28;5228124;28;20060;-75
2022/06/15 09:44:03;;;;;;;3.78;1.00;;;;;;;29.51;45.73;100961.59;5230646;28;20029;-75
2022/06/15 09:46:50;;;;;;;2.95;0.82;;;;;;;29.43;46.66;100955.31;5213135;28;20044;-74
2022/06/15 09:49:28;;;;;;;3.10;0.95;;;;;;;29.46;45.02;100961.25;5223663;28;20025;-74
2022/06/15 09:52:10;;;;;;;4.65;1.17;;;;;;;27.58;48.00;100959.69;5229570;28;20024;-74
2022/06/15 09:54:46;;;;;;;3.40;1.02;;;;;;;29.16;45.54;100950.19;5225481;28;20031;-74
2022/06/15 09:57:17;;;;;;;3.40;1.08;;;;;;;29.74;45.66;100937.53;5230445;28;20033;-72
2022/06/15 09:59:47;;;;;;;2.88;0.90;;;;;;;29.44;46.64;100946.22;5228616;28;20444;-73
2022/06/15 10:02:34;;;;;;;4.28;0.90;;;;;;;30.09;46.37;100937.22;5208818;28;20493;-73
2022/06/15 10:05:15;;;;;;;2.72;0.80;;;;;;;29.62;45.18;100934.31;5230512;28;20032;-74
2022/06/15 10:07:46;;;;;;;6.22;1.10;;;;;;;30.06;46.16;100934.84;5228207;28;20017;-75
2022/06/15 10:10:27;;;;;;;3.25;1.17;;;;;;;29.54;46.00;100928.91;5212290;28;20035;-74
2022/06/15 10:13:03;;;;;;;4.53;1.00;;;;;;;29.72;46.11;100928.78;5230807;28;20036;-74
2022/06/15 10:15:33;;;;;;;2.58;1.10;;;;;;;30.17;45.50;100923.69;5229487;28;20036;-74
2022/06/15 10:18:21;;;;;;;7.82;0.90;;;;;;;29.46;46.09;100928.91;5232723;28;20486;-74
2022/06/15 10:21:13;;;;;;;4.45;1.20;;;;;;;28.67;49.19;100929.41;5229596;28;20036;-73
2022/06/15 10:24:11;;;;;;;5.50;1.10;;;;;;;26.87;49.82;100939.88;5221291;28;20033;-74
2022/06/15 10:27:12;;;;;;;3.17;0.90;;;;;;;26.60;51.68;100933.66;5226101;28;20028;-74
2022/06/15 10:29:43;;;;;;;2.47;0.90;;;;;;;25.92;53.13;100933.09;5202316;28;20035;-74
2022/06/15 10:32:18;;;;;;;4.38;1.02;;;;;;;26.16;52.52;100928.16;5225639;28;20028;-73
2022/06/15 10:35:09;;;;;;;3.73;0.97;;;;;;;26.88;49.48;100927.31;5231503;28;20023;-73
2022/06/15 10:37:52;;;;;;;3.70;1.00;;;;;;;26.86;51.02;100930.16;5222239;28;20025;-73
2022/06/15 10:40:29;;;;;;;4.20;1.15;;;;;;;26.50;49.66;100932.84;5211431;28;20119;-74
2022/06/15 10:43:04;;;;;;;4.63;1.33;;;;;;;26.60;49.49;100927.44;5231322;28;20025;-73
2022/06/15 10:45:36;;;;;;;2.38;0.90;;;;;;;27.30;49.54;100921.28;5231974;28;20499;-73
2022/06/15 10:48:17;;;;;;;2.78;1.00;;;;;;;27.33;49.28;100918.31;5224352;28;20078;-73
2022/06/15 10:50:51;;;;;;;2.85;0.90;;;;;;;27.71;48.95;100926.06;5229891;28;20109;-73
2022/06/15 10:53:37;;;;;;;6.03;0.80;;;;;;;27.12;49.48;100917.72;5222758;28;20083;-73
2022/06/15 11:02:37;;;;;;;4.22;1.20;;;;;;;26.97;50.73;100915.69;5223162;28;20035;-73
2022/06/15 11:05:20;;;;;;;3.55;1.00;;;;;;;27.06;50.92;100910.25;5227921;28;20684;-73
2022/06/15 11:07:58;;;;;;;4.28;1.25;;;;;;;26.75;50.43;100911.56;5230089;28;20103;-73
2022/06/15 11:10:35;;;;;;;2.05;0.80;;;;;;;26.99;50.33;100911.00;5231908;28;20024;-72
2022/06/15 11:13:17;;;;;;;3.65;1.02;;;;;;;27.19;50.26;100900.03;5229474;28;20032;-73
2022/06/15 11:19:01;;;;;;;2.50;0.85;;;;;;;26.61;51.54;100894.25;5224883;28;20052;-73
2022/06/15 11:21:39;;;;;;;5.93;1.20;;;;;;;26.30;52.73;100890.97;5229447;28;20025;-73
2022/06/15 11:24:28;;;;;;;2.67;0.98;;;;;;;26.65;49.80;100893.81;5218334;28;20032;-73
2022/06/15 11:27:04;;;;;;;4.55;1.00;;;;;;;26.59;51.65;100885.53;5211381;28;20079;-73
2022/06/15 11:29:57;;;;;;;2.47;0.88;;;;;;;26.58;50.56;100886.53;5224487;28;20146;-74
2022/06/15 11:32:43;;;;;;;2.88;0.95;;;;;;;26.89;49.83;100886.91;5220087;28;20370;-73
2022/06/15 11:35:13;;;;;;;3.55;0.85;;;;;;;27.01;50.82;100883.03;5226848;28;20236;-73
2022/06/15 11:37:57;;;;;;;4.90;1.10;;;;;;;26.28;49.87;100879.56;5231581;28;20025;-73
2022/06/15 11:41:00;;;;;;;3.92;1.27;;;;;;;26.79;51.71;100879.91;5213427;28;20347;-72
2022/06/15 11:43:34;;;;;;;3.33;1.05;;;;;;;26.79;54.38;100879.91;5219952;28;20052;-74
2022/06/15 11:46:28;;;;;;;3.95;1.08;;;;;;;26.59;51.87;100870.28;5232538;28;20032;-72
2022/06/15 11:49:09;;;;;;;3.65;1.17;;;;;;;26.16;52.91;100875.38;5230165;28;20035;-73
2022/06/15 11:52:21;;;;;;;4.80;1.05;;;;;;;26.37;51.99;100881.34;5224558;28;20028;-73
2022/06/15 11:55:24;;;;;;;2.03;1.05;;;;;;;26.80;51.04;100870.88;5165558;28;20039;-73
2022/06/15 11:58:32;;;;;;;3.63;1.00;;;;;;;26.64;50.06;100869.81;5227355;28;20068;-73
2022/06/15 12:01:19;;;;;;;2.58;1.00;;;;;;;25.87;50.29;100868.41;5231480;28;20027;-72
2022/06/15 12:04:10;;;;;;;4.20;1.10;;;;;;;26.39;49.82;100870.50;5227875;28;20025;-72
2022/06/15 12:07:11;;;;;;;3.75;1.20;;;;;;;26.54;50.10;100863.69;5224966;28;20025;-72
2022/06/15 12:10:11;;;;;;;2.80;1.00;;;;;;;26.49;50.26;100866.81;5228625;28;20040;-74
2022/06/15 12:12:41;;;;;;;3.85;0.95;;;;;;;26.58;50.81;100860.56;5211262;28;20036;-73
2022/06/15 12:15:20;;;;;;;3.80;1.17;;;;;;;26.35;52.33;100858.38;5235597;28;20028;-73
2022/06/15 12:18:15;;;;;;;3.35;0.90;;;;;;;26.29;50.66;100864.31;5233393;28;20049;-73
2022/06/15 12:20:55;;;;;;;3.33;1.05;;;;;;;26.19;50.52;100858.16;5229824;28;20021;-73